Time;durP1;ratioP1;P1;durP2;ratioP2;P2;SDS_P1;SDS_P2;PMS_P1;PMS_P2;Temp;Humidity;BMP_temperature;BMP_pressure;BME280_temperature;BME280_humidity;BME280_pressure;Samples;Min_cycle;Max_cycle;Signal;HPM_P1;HPM_P2
2021/11/22 00:01:53;;;;;;;7.70;3.60;;;;;;;3.91;100.00;98205.13;4938577;28;20102;-70
2021/11/22 00:04:38;;;;;;;6.45;3.70;;;;;;;3.98;100.00;98211.09;4942321;29;20110;-70
2021/11/22 00:07:23;;;;;;;7.97;3.53;;;;;;;3.98;100.00;98213.72;4936789;28;20066;-68
2021/11/22 00:10:08;;;;;;;6.50;3.30;;;;;;;3.88;100.00;98218.28;4938784;28;20071;-71
2021/11/22 00:12:54;;;;;;;4.38;3.13;;;;;;;3.69;100.00;98211.63;4939031;28;20343;-67
2021/11/22 00:15:39;;;;;;;4.88;2.97;;;;;;;3.69;100.00;98227.34;4939222;28;20930;-67
2021/11/22 00:18:24;;;;;;;7.63;3.65;;;;;;;3.52;100.00;98226.78;4941315;28;20054;-69
2021/11/22 00:21:08;;;;;;;6.78;3.05;;;;;;;3.47;100.00;98239.09;4945561;29;20062;-67
2021/11/22 00:23:53;;;;;;;8.18;3.60;;;;;;;3.31;100.00;98231.50;4934040;28;20050;-71
2021/11/22 00:26:38;;;;;;;6.25;3.92;;;;;;;3.41;100.00;98247.03;4948380;28;20479;-67
2021/11/22 00:29:23;;;;;;;5.72;3.55;;;;;;;3.40;100.00;98244.47;4917740;29;20077;-66
2021/11/22 00:32:27;;;;;;;4.03;2.75;;;;;;;3.31;100.00;98237.63;4944400;28;20054;-72
2021/11/22 00:35:33;;;;;;;4.03;2.72;;;;;;;3.10;100.00;98255.41;4934959;28;20059;-66
2021/11/22 00:38:19;;;;;;;5.35;2.47;;;;;;;3.00;100.00;98245.94;4929897;29;20103;-68
2021/11/22 00:41:04;;;;;;;3.45;2.35;;;;;;;3.00;100.00;98265.16;4943794;28;20050;-74
2021/11/22 00:43:48;;;;;;;3.65;2.35;;;;;;;3.02;100.00;98263.41;4938772;29;20054;-64
2021/11/22 00:46:33;;;;;;;2.80;2.10;;;;;;;2.98;100.00;98266.94;4942358;29;20054;-69
2021/11/22 00:49:17;;;;;;;3.65;2.30;;;;;;;2.91;100.00;98270.53;4940022;28;20081;-67
2021/11/22 00:52:03;;;;;;;5.40;2.42;;;;;;;2.93;100.00;98270.50;4949672;28;20090;-65
2021/11/22 00:54:48;;;;;;;5.63;2.50;;;;;;;2.90;100.00;98270.53;4942659;28;20103;-69
2021/11/22 00:57:34;;;;;;;3.30;2.35;;;;;;;2.97;100.00;98280.06;4947133;28;20571;-66
2021/11/22 01:00:21;;;;;;;3.20;2.20;;;;;;;3.10;100.00;98286.84;4946626;28;20587;-71
2021/11/22 01:03:05;;;;;;;3.33;2.35;;;;;;;3.18;100.00;98280.59;4960730;28;20467;-64
2021/11/22 01:05:50;;;;;;;3.88;2.50;;;;;;;3.19;100.00;98277.09;4916316;28;20090;-69
2021/11/22 01:08:35;;;;;;;4.22;3.00;;;;;;;3.18;100.00;98290.19;4950633;28;20169;-67
2021/11/22 01:11:19;;;;;;;3.92;2.65;;;;;;;3.18;100.00;98287.59;4946953;28;20046;-69
2021/11/22 01:14:04;;;;;;;4.93;3.00;;;;;;;3.20;100.00;98291.91;4929973;29;20135;-66
2021/11/22 01:16:49;;;;;;;3.28;2.50;;;;;;;3.28;100.00;98287.41;4934060;29;20530;-67
2021/11/22 01:19:38;;;;;;;4.47;2.53;;;;;;;3.37;100.00;98299.53;4934870;28;20530;-68
2021/11/22 01:22:25;;;;;;;4.07;2.60;;;;;;;3.27;100.00;98293.56;4940892;29;20098;-66
2021/11/22 01:25:13;;;;;;;3.25;2.70;;;;;;;3.31;100.00;98297.84;4958814;28;20094;-65
2021/11/22 01:27:58;;;;;;;6.35;2.60;;;;;;;3.36;100.00;98300.44;4952223;28;20138;-67
2021/11/22 01:30:43;;;;;;;4.80;3.15;;;;;;;3.42;100.00;98295.94;4937060;29;20054;-66
2021/11/22 01:33:27;;;;;;;8.50;3.17;;;;;;;3.43;100.00;98292.44;4943363;28;20134;-67
2021/11/22 01:36:12;;;;;;;3.92;2.50;;;;;;;3.39;100.00;98292.50;4946580;28;20049;-67
2021/11/22 01:38:56;;;;;;;3.17;2.40;;;;;;;3.36;100.00;98316.13;4929555;29;20102;-70
2021/11/22 01:41:41;;;;;;;4.90;3.10;;;;;;;3.33;100.00;98310.94;4943962;28;20110;-68
2021/11/22 01:44:25;;;;;;;3.80;2.30;;;;;;;3.23;100.00;98310.22;4937828;28;20183;-66
2021/11/22 01:47:10;;;;;;;3.65;2.05;;;;;;;3.06;100.00;98314.81;4931300;29;20066;-69
2021/11/22 01:49:55;;;;;;;3.30;2.22;;;;;;;3.04;100.00;98319.19;4942141;28;20065;-67
2021/11/22 01:52:41;;;;;;;3.53;1.92;;;;;;;3.03;100.00;98317.47;4944538;28;20082;-73
2021/11/22 01:55:28;;;;;;;3.35;1.92;;;;;;;3.11;100.00;98319.97;4942966;28;20121;-66
2021/11/22 01:58:15;;;;;;;3.88;2.08;;;;;;;3.03;100.00;98321.84;4959971;28;20054;-67
2021/11/22 02:01:00;;;;;;;1.75;1.55;;;;;;;3.02;100.00;98309.63;4949587;28;20097;-67
2021/11/22 02:03:46;;;;;;;2.70;1.45;;;;;;;3.08;100.00;98317.38;4934716;29;20051;-68
2021/11/22 02:06:30;;;;;;;2.17;1.15;;;;;;;3.10;100.00;98319.13;4938297;28;20050;-69
2021/11/22 02:09:15;;;;;;;2.30;1.20;;;;;;;3.05;100.00;98320.06;4936351;28;20758;-70
2021/11/22 02:12:00;;;;;;;1.92;1.35;;;;;;;2.97;100.00;98314.06;4953113;28;20194;-71
2021/11/22 02:14:45;;;;;;;1.90;1.40;;;;;;;3.06;100.00;98327.03;4949563;28;20050;-67
2021/11/22 02:17:29;;;;;;;3.38;1.33;;;;;;;3.02;100.00;98330.59;4949219;28;20566;-66
2021/11/22 02:20:23;;;;;;;1.98;1.15;;;;;;;3.08;100.00;98330.47;4934363;29;20107;-67
2021/11/22 02:23:10;;;;;;;1.52;1.25;;;;;;;3.08;100.00;98327.84;4951461;28;20412;-68
2021/11/22 02:25:55;;;;;;;1.67;1.20;;;;;;;3.03;100.00;98327.06;4947313;28;20574;-69
2021/11/22 02:28:40;;;;;;;1.85;1.17;;;;;;;3.07;100.00;98334.88;4950774;29;20050;-70
2021/11/22 02:31:25;;;;;;;1.77;1.10;;;;;;;3.03;100.00;98338.41;4930685;28;20082;-66
2021/11/22 02:34:13;;;;;;;2.38;1.30;;;;;;;3.04;100.00;98342.75;4933581;29;20137;-66
2021/11/22 02:36:58;;;;;;;1.65;1.13;;;;;;;3.13;100.00;98340.00;4941969;28;20103;-66
2021/11/22 02:39:43;;;;;;;2.03;1.38;;;;;;;3.08;100.00;98333.97;4941279;29;20054;-74
2021/11/22 02:42:30;;;;;;;2.57;1.40;;;;;;;3.15;100.00;98340.00;4939918;28;20077;-65
2021/11/22 02:45:18;;;;;;;2.88;1.10;;;;;;;3.12;100.00;98345.25;4949157;28;20715;-68
2021/11/22 02:48:05;;;;;;;2.08;1.23;;;;;;;3.12;100.00;98354.00;4952686;28;20111;-70
2021/11/22 02:50:51;;;;;;;1.90;1.30;;;;;;;3.13;100.00;98349.63;4949679;28;20098;-65
2021/11/22 02:53:37;;;;;;;1.40;1.08;;;;;;;3.04;100.00;98353.22;4934706;29;20074;-73
2021/11/22 02:56:22;;;;;;;2.70;1.48;;;;;;;3.07;100.00;98357.56;4958481;28;20170;-66
2021/11/22 02:59:07;;;;;;;2.05;1.40;;;;;;;2.94;100.00;98363.84;4930016;29;20050;-70
2021/11/22 03:01:51;;;;;;;6.88;1.80;;;;;;;2.95;100.00;98369.06;4935131;28;20476;-66
2021/11/22 03:04:39;;;;;;;2.80;1.70;;;;;;;3.05;100.00;98372.44;4941682;28;20538;-68
2021/11/22 03:07:24;;;;;;;5.32;1.90;;;;;;;2.96;100.00;98383.00;4951890;28;20584;-67
2021/11/22 03:10:12;;;;;;;6.47;2.67;;;;;;;2.85;100.00;98387.53;4945821;28;20054;-68
2021/11/22 03:12:59;;;;;;;4.80;2.05;;;;;;;2.76;100.00;98396.31;4945821;28;20061;-66
2021/11/22 03:15:44;;;;;;;3.72;1.77;;;;;;;2.71;100.00;98385.06;4956786;28;20054;-66
2021/11/22 03:18:29;;;;;;;7.22;2.15;;;;;;;2.73;100.00;98391.13;4945584;28;20477;-65
2021/11/22 03:21:14;;;;;;;4.32;2.00;;;;;;;2.85;100.00;98390.13;4920296;29;20058;-67
2021/11/22 03:23:59;;;;;;;3.35;1.60;;;;;;;2.86;100.00;98394.47;4930589;29;20102;-68
2021/11/22 03:26:46;;;;;;;2.53;1.50;;;;;;;2.88;100.00;98404.03;4948027;28;20113;-72
2021/11/22 03:29:30;;;;;;;3.47;1.58;;;;;;;2.98;100.00;98395.22;4926242;29;20058;-71
2021/11/22 03:32:15;;;;;;;3.45;2.58;;;;;;;3.02;100.00;98391.66;4928215;29;20082;-70
2021/11/22 03:35:01;;;;;;;2.78;1.60;;;;;;;3.10;100.00;98397.69;4931734;29;20115;-66
2021/11/22 03:37:46;;;;;;;2.53;1.70;;;;;;;3.07;100.00;98396.81;4960499;28;20050;-68
2021/11/22 03:40:32;;;;;;;4.68;1.83;;;;;;;2.96;100.00;98406.56;4938559;28;20051;-66
2021/11/22 03:43:26;;;;;;;4.75;1.73;;;;;;;2.89;100.00;98415.38;4931354;29;20488;-67
2021/11/22 03:46:12;;;;;;;2.38;1.50;;;;;;;2.95;100.00;98412.69;4944150;28;20111;-69
2021/11/22 03:48:57;;;;;;;2.63;1.35;;;;;;;2.91;100.00;98408.38;4945252;28;20142;-70
2021/11/22 03:51:42;;;;;;;2.40;1.25;;;;;;;2.80;100.00;98413.72;4926953;29;20062;-68
2021/11/22 03:54:27;;;;;;;2.67;1.50;;;;;;;2.73;100.00;98417.28;4932611;28;20588;-71
2021/11/22 03:57:11;;;;;;;2.60;1.63;;;;;;;2.78;100.00;98418.13;4949263;28;20091;-68
2021/11/22 03:59:57;;;;;;;2.90;1.60;;;;;;;2.88;100.00;98421.47;4942842;28;20086;-73
2021/11/22 04:02:41;;;;;;;3.45;1.25;;;;;;;2.77;100.00;98423.38;4941304;28;20114;-67
2021/11/22 04:05:26;;;;;;;3.05;1.20;;;;;;;2.75;100.00;98436.47;4941071;28;20058;-67
2021/11/22 04:08:11;;;;;;;2.30;1.60;;;;;;;2.80;100.00;98442.50;4929317;29;20058;-67
2021/11/22 04:10:55;;;;;;;1.95;1.23;;;;;;;2.71;100.00;98440.00;4950914;28;20109;-66
2021/11/22 04:13:40;;;;;;;1.60;1.33;;;;;;;2.63;100.00;98436.59;4942302;28;20511;-66
2021/11/22 04:16:25;;;;;;;3.17;1.20;;;;;;;2.54;100.00;98447.13;4935182;29;20047;-68
2021/11/22 04:19:09;;;;;;;2.47;1.80;;;;;;;2.58;100.00;98461.06;4944160;28;20126;-77
2021/11/22 04:21:55;;;;;;;2.05;1.40;;;;;;;2.65;100.00;98467.97;4946985;28;20101;-68
2021/11/22 04:24:40;;;;;;;2.08;1.30;;;;;;;2.64;100.00;98458.38;4946599;28;20518;-69
2021/11/22 04:27:24;;;;;;;1.88;1.33;;;;;;;2.54;100.00;98461.97;4948196;28;20141;-69
2021/11/22 04:30:10;;;;;;;2.67;1.30;;;;;;;2.85;100.00;98481.72;4937801;29;20382;-71
2021/11/22 04:32:55;;;;;;;1.80;1.10;;;;;;;2.84;100.00;98495.69;4936102;28;20062;-67
2021/11/22 04:35:40;;;;;;;;;;;;;;;3.00;100.00;98494.63;4942333;28;20131;-68
2021/11/22 04:38:25;;;;;;;2.22;1.30;;;;;;;3.03;100.00;98495.50;4939715;29;19926;-71
2021/11/22 04:41:10;;;;;;;1.77;1.20;;;;;;;2.98;100.00;98497.31;4949078;28;20117;-66
2021/11/22 04:43:55;;;;;;;;;;;;;;;2.91;100.00;98516.56;4946378;28;20469;-65
2021/11/22 04:46:39;;;;;;;2.33;1.35;;;;;;;2.79;100.00;98523.66;4931837;29;20422;-65
2021/11/22 04:49:24;;;;;;;2.58;1.50;;;;;;;2.84;100.00;98527.09;4925689;29;20054;-71
2021/11/22 04:52:09;;;;;;;2.47;1.40;;;;;;;2.75;100.00;98533.28;4946639;28;20041;-70
2021/11/22 04:54:56;;;;;;;2.20;1.42;;;;;;;2.81;100.00;98541.06;4944085;28;20073;-74
2021/11/22 04:57:43;;;;;;;2.75;1.45;;;;;;;2.64;100.00;98542.97;4935132;29;20053;-74
2021/11/22 05:00:28;;;;;;;1.88;1.48;;;;;;;2.54;100.00;98538.69;4924082;29;20456;-64
2021/11/22 05:03:14;;;;;;;2.47;1.60;;;;;;;2.70;100.00;98549.91;4932687;28;20058;-67
2021/11/22 05:05:58;;;;;;;2.88;1.30;;;;;;;2.77;100.00;98548.97;4933932;29;20072;-66
2021/11/22 05:08:43;;;;;;;1.80;1.25;;;;;;;2.73;100.00;98560.34;4945110;29;20085;-64
2021/11/22 05:11:28;;;;;;;2.30;1.35;;;;;;;2.54;100.00;98554.38;4949376;28;20154;-66
2021/11/22 05:14:13;;;;;;;2.33;1.58;;;;;;;2.61;100.00;98560.47;4930999;29;20105;-67
2021/11/22 05:16:58;;;;;;;2.85;1.52;;;;;;;2.62;100.00;98580.50;4931824;29;20079;-71
2021/11/22 05:19:43;;;;;;;2.10;1.70;;;;;;;2.61;100.00;98571.78;4936306;28;20050;-66
2021/11/22 05:22:27;;;;;;;2.70;1.60;;;;;;;2.63;100.00;98582.22;4946337;28;20072;-65
2021/11/22 05:25:12;;;;;;;1.50;1.30;;;;;;;2.62;100.00;98598.81;4947381;28;20126;-68
2021/11/22 05:27:57;;;;;;;2.70;1.55;;;;;;;2.60;100.00;98609.28;4945641;28;20158;-66
2021/11/22 05:30:42;;;;;;;4.53;1.90;;;;;;;2.70;100.00;98616.22;4937553;28;20545;-68
2021/11/22 05:33:27;;;;;;;2.63;1.40;;;;;;;2.66;100.00;98627.56;4953450;28;20049;-69
2021/11/22 05:36:11;;;;;;;1.90;1.02;;;;;;;2.58;100.00;98626.75;4946456;28;20551;-74
2021/11/22 05:38:56;;;;;;;1.58;1.08;;;;;;;2.54;100.00;98617.16;4947158;28;20537;-68
2021/11/22 05:41:41;;;;;;;1.30;1.00;;;;;;;2.51;100.00;98634.63;4947948;28;21003;-66
2021/11/22 05:44:26;;;;;;;1.00;0.80;;;;;;;2.53;100.00;98638.97;4956280;28;20062;-65
2021/11/22 05:47:12;;;;;;;1.95;0.80;;;;;;;2.51;100.00;98627.69;4927067;29;20114;-70
2021/11/22 05:50:04;;;;;;;1.15;0.80;;;;;;;2.34;100.00;98633.88;4929145;29;20067;-66
2021/11/22 05:52:53;;;;;;;1.05;0.80;;;;;;;2.38;100.00;98644.28;4937660;28;20086;-66
2021/11/22 05:55:39;;;;;;;2.33;0.90;;;;;;;2.41;100.00;98653.91;4958034;28;20081;-69
2021/11/22 05:58:24;;;;;;;1.25;0.75;;;;;;;2.51;100.00;98660.81;4974962;28;20050;-68
2021/11/22 06:01:09;;;;;;;1.15;0.80;;;;;;;2.35;100.00;98653.91;4925920;29;20055;-70
2021/11/22 06:03:53;;;;;;;1.67;1.00;;;;;;;2.34;100.00;98671.34;4944625;28;20639;-71
2021/11/22 06:06:39;;;;;;;1.23;0.90;;;;;;;2.44;100.00;98686.13;4944481;28;20416;-67
2021/11/22 06:09:24;;;;;;;1.48;0.90;;;;;;;2.45;100.00;98659.09;4931220;29;20103;-74
2021/11/22 06:12:09;;;;;;;1.20;0.93;;;;;;;2.39;100.00;98697.50;4959435;28;20652;-67
2021/11/22 06:14:55;;;;;;;1.50;0.80;;;;;;;2.47;100.00;98707.03;4934801;29;20165;-67
2021/11/22 06:17:39;;;;;;;1.52;1.15;;;;;;;2.40;100.00;98704.44;4943075;28;20062;-71
2021/11/22 06:20:25;;;;;;;2.00;1.10;;;;;;;2.50;100.00;98704.38;4946239;29;20776;-72
2021/11/22 06:23:11;;;;;;;1.55;1.20;;;;;;;2.56;100.00;98709.59;4945217;29;20054;-74
2021/11/22 06:25:58;;;;;;;1.13;0.93;;;;;;;2.57;100.00;98682.56;4943852;28;20106;-71
2021/11/22 06:28:42;;;;;;;1.45;0.98;;;;;;;2.43;100.00;98723.63;4940327;29;20081;-70
2021/11/22 06:31:27;;;;;;;1.33;0.80;;;;;;;2.41;100.00;98727.13;4941403;29;20066;-69
2021/11/22 06:34:12;;;;;;;2.35;1.17;;;;;;;2.58;100.00;98746.22;4938411;29;20191;-68
2021/11/22 06:36:56;;;;;;;1.55;0.82;;;;;;;2.61;100.00;98741.00;4941756;28;20090;-66
2021/11/22 06:39:41;;;;;;;2.10;0.70;;;;;;;2.49;100.00;98759.34;4942263;29;20154;-70
2021/11/22 06:42:28;;;;;;;2.67;0.70;;;;;;;2.36;100.00;98749.81;4942819;28;20427;-69
2021/11/22 06:45:17;;;;;;;2.00;0.90;;;;;;;2.33;100.00;98768.16;4939148;28;20190;-71
2021/11/22 06:48:02;;;;;;;1.98;0.80;;;;;;;2.58;100.00;98782.84;4939853;28;20071;-68
2021/11/22 06:50:47;;;;;;;;;;;;;;;2.55;100.00;98780.25;4954639;28;21067;-70
2021/11/22 06:53:34;;;;;;;1.95;0.90;;;;;;;2.57;100.00;98788.97;4957651;28;19929;-68
2021/11/22 06:56:18;;;;;;;1.40;0.70;;;;;;;2.57;100.00;98813.38;4942586;28;20062;-74
2021/11/22 06:59:03;;;;;;;1.33;0.70;;;;;;;2.46;100.00;98781.13;4943027;29;20051;-70
2021/11/22 07:01:49;;;;;;;1.45;0.60;;;;;;;2.57;100.00;98821.22;4955987;28;20050;-74
2021/11/22 07:04:34;;;;;;;1.80;0.98;;;;;;;2.45;100.00;98804.72;4957391;28;20082;-68
2021/11/22 07:07:19;;;;;;;2.30;1.05;;;;;;;2.86;100.00;98847.28;4953101;28;20046;-67
2021/11/22 07:10:06;;;;;;;2.83;1.10;;;;;;;2.66;100.00;98854.34;4941982;28;20170;-68
2021/11/22 07:12:52;;;;;;;2.00;0.88;;;;;;;2.57;100.00;98870.06;4943515;28;20050;-75
2021/11/22 07:15:37;;;;;;;2.10;0.93;;;;;;;2.45;100.00;98872.72;4942299;28;20093;-67
2021/11/22 07:18:22;;;;;;;2.78;0.70;;;;;;;2.21;100.00;98893.69;4952583;28;20102;-71
2021/11/22 07:21:06;;;;;;;2.25;0.80;;;;;;;2.03;100.00;98893.69;4935980;29;20050;-74
2021/11/22 07:23:52;;;;;;;1.35;0.65;;;;;;;2.19;100.00;98898.03;4939410;28;20109;-70
2021/11/22 07:26:36;;;;;;;1.33;0.68;;;;;;;2.11;100.00;98907.63;4959946;28;20050;-69
2021/11/22 07:29:21;;;;;;;2.38;0.75;;;;;;;2.09;100.00;98910.25;4949926;28;20333;-70
2021/11/22 07:32:06;;;;;;;0.60;0.47;;;;;;;1.89;100.00;98914.59;4944763;28;20062;-67
2021/11/22 07:34:50;;;;;;;1.02;0.50;;;;;;;1.74;100.00;98903.28;4929636;29;20130;-66
2021/11/22 07:37:35;;;;;;;1.67;0.60;;;;;;;1.50;100.00;98925.00;4938267;28;20050;-68
2021/11/22 07:40:21;;;;;;;1.48;0.80;;;;;;;1.75;100.00;98941.59;4942058;28;20050;-68
2021/11/22 07:43:07;;;;;;;0.75;0.60;;;;;;;2.40;100.00;98938.13;4941903;28;20077;-67
2021/11/22 07:45:52;;;;;;;2.20;0.73;;;;;;;2.89;100.00;98952.84;4935219;29;20098;-72
2021/11/22 07:48:37;;;;;;;2.08;0.75;;;;;;;2.71;100.00;98945.03;4941766;28;20093;-66
2021/11/22 07:51:23;;;;;;;1.98;0.50;;;;;;;2.70;100.00;98968.59;4953265;28;20121;-69
2021/11/22 07:54:08;;;;;;;1.35;0.60;;;;;;;2.65;100.00;98968.59;4960693;28;20066;-74
2021/11/22 07:56:53;;;;;;;2.78;0.50;;;;;;;2.53;100.00;98959.91;4951789;28;20090;-67
2021/11/22 07:59:38;;;;;;;2.72;0.60;;;;;;;3.02;100.00;98969.38;4959008;28;20049;-67
2021/11/22 08:02:23;;;;;;;8.27;0.73;;;;;;;3.72;100.00;98979.53;4934486;28;20055;-68
2021/11/22 08:05:10;;;;;;;0.93;0.60;;;;;;;3.41;100.00;98988.44;4949255;28;20130;-67
2021/11/22 08:07:55;;;;;;;1.55;0.90;;;;;;;2.97;100.00;98981.63;4946519;28;20130;-67
2021/11/22 08:10:41;;;;;;;5.07;0.90;;;;;;;3.07;100.00;98988.56;4945001;28;20051;-66
2021/11/22 08:13:26;;;;;;;2.78;1.13;;;;;;;2.90;100.00;98999.09;4936912;29;20053;-73
2021/11/22 08:16:12;;;;;;;4.00;0.70;;;;;;;2.75;100.00;99000.84;4941239;28;20098;-66
2021/11/22 08:18:57;;;;;;;3.97;1.08;;;;;;;2.30;100.00;98993.91;4935221;29;20046;-67
2021/11/22 08:21:41;;;;;;;2.17;0.90;;;;;;;2.06;100.00;98998.25;4952512;28;20999;-65
2021/11/22 08:24:26;;;;;;;5.65;1.23;;;;;;;2.02;100.00;99002.59;4947832;28;20078;-67
2021/11/22 08:27:11;;;;;;;1.45;0.82;;;;;;;3.18;100.00;99031.31;4938799;28;20117;-68
2021/11/22 08:30:11;;;;;;;5.07;1.13;;;;;;;5.45;100.00;99024.44;4951537;28;20070;-71
2021/11/22 08:32:58;;;;;;;2.15;0.70;;;;;;;4.46;100.00;99039.38;4949139;28;20051;-67
2021/11/22 08:35:43;;;;;;;1.38;0.60;;;;;;;3.82;100.00;99014.44;4939516;29;20527;-68
2021/11/22 08:38:28;;;;;;;2.35;0.82;;;;;;;3.59;100.00;99035.53;4938529;29;20235;-65
2021/11/22 08:41:14;;;;;;;2.00;0.77;;;;;;;4.64;100.00;99026.97;4949854;28;20202;-70
2021/11/22 08:43:59;;;;;;;1.58;0.85;;;;;;;4.23;100.00;99049.16;4952005;28;20137;-65
2021/11/22 08:46:46;;;;;;;2.80;0.80;;;;;;;4.01;100.00;99052.81;4946771;28;20535;-65
2021/11/22 08:49:32;;;;;;;2.72;0.80;;;;;;;3.29;100.00;99032.16;4938264;28;20534;-69
2021/11/22 08:52:19;;;;;;;6.93;1.10;;;;;;;3.49;100.00;99057.41;4938738;29;20416;-69
2021/11/22 08:55:05;;;;;;;2.83;0.82;;;;;;;3.05;100.00;99047.94;4939701;29;20070;-68
2021/11/22 08:57:51;;;;;;;7.00;0.65;;;;;;;2.58;100.00;99044.50;4943234;28;20086;-69
2021/11/22 09:00:39;;;;;;;1.27;0.75;;;;;;;2.44;100.00;99059.28;4940992;28;20098;-69
2021/11/22 09:03:23;;;;;;;3.03;0.70;;;;;;;2.44;100.00;99073.25;4939204;28;20129;-70
2021/11/22 09:06:08;;;;;;;2.65;0.90;;;;;;;2.60;100.00;99046.22;4935012;28;20833;-66
2021/11/22 09:08:52;;;;;;;8.40;0.90;;;;;;;2.99;100.00;99061.03;4951347;28;20129;-72
2021/11/22 09:11:39;;;;;;;2.40;0.80;;;;;;;3.36;100.00;99078.44;4949915;28;20098;-69
2021/11/22 09:14:23;;;;;;;2.53;0.70;;;;;;;3.31;100.00;99088.03;4956090;28;20113;-70
2021/11/22 09:17:08;;;;;;;3.95;0.98;;;;;;;3.32;100.00;99081.94;4944208;28;20097;-70
2021/11/22 09:19:53;;;;;;;5.80;0.77;;;;;;;3.24;100.00;99095.03;4942617;29;20049;-72
2021/11/22 09:22:39;;;;;;;1.00;0.77;;;;;;;3.00;100.00;99091.56;4945564;29;20534;-70
2021/11/22 09:25:25;;;;;;;4.88;0.63;;;;;;;2.87;100.00;99087.22;4929015;28;20414;-71
2021/11/22 09:28:10;;;;;;;7.22;0.98;;;;;;;2.98;100.00;99099.44;4942359;28;20183;-67
2021/11/22 09:30:55;;;;;;;5.55;1.05;;;;;;;2.74;100.00;99103.81;4945197;28;20195;-75
2021/11/22 09:33:43;;;;;;;1.98;0.80;;;;;;;2.58;100.00;99091.59;4944844;28;20058;-74
2021/11/22 09:36:29;;;;;;;3.35;2.05;;;;;;;2.66;100.00;99106.44;4921720;28;20054;-71
2021/11/22 09:39:18;;;;;;;3.42;1.10;;;;;;;2.74;100.00;99099.47;4946267;28;20101;-73
2021/11/22 09:42:05;;;;;;;3.47;0.82;;;;;;;2.61;100.00;99121.22;4948289;28;20109;-68
2021/11/22 09:44:53;;;;;;;2.25;0.82;;;;;;;2.50;100.00;99117.72;4946554;28;20566;-69
2021/11/22 09:47:38;;;;;;;5.18;0.70;;;;;;;2.57;100.00;99124.72;4946234;28;20551;-70
2021/11/22 09:50:23;;;;;;;3.70;0.93;;;;;;;3.16;100.00;99122.97;4948475;28;20539;-68
2021/11/22 09:53:08;;;;;;;2.20;0.98;;;;;;;3.30;100.00;99121.22;4947444;28;20079;-67
2021/11/22 09:55:53;;;;;;;5.13;0.90;;;;;;;3.56;100.00;99131.66;4960703;28;20420;-73
2021/11/22 09:58:38;;;;;;;3.83;0.88;;;;;;;3.85;100.00;99145.53;4949126;28;20046;-70
2021/11/22 10:01:23;;;;;;;7.85;1.08;;;;;;;5.02;100.00;99144.00;4944642;28;20070;-72
2021/11/22 10:04:10;;;;;;;;;;;;;;;4.57;100.00;99155.69;4949155;29;20141;-71
2021/11/22 10:07:05;;;;;;;6.00;0.73;;;;;;;3.14;100.00;99147.44;4941912;28;19977;-72
2021/11/22 10:09:51;;;;;;;10.82;1.15;;;;;;;3.60;100.00;99157.84;4950247;28;20061;-67
2021/11/22 10:12:35;;;;;;;7.05;1.05;;;;;;;3.70;100.00;99164.81;4933259;29;20054;-70
2021/11/22 10:15:20;;;;;;;2.92;0.85;;;;;;;3.62;100.00;99169.19;4948350;28;20610;-71
2021/11/22 10:18:16;;;;;;;10.25;1.42;;;;;;;4.86;100.00;99167.72;4933969;29;20049;-71
2021/11/22 10:21:07;;;;;;;3.38;1.00;;;;;;;6.16;100.00;99162.09;4949289;28;20101;-68
2021/11/22 10:24:00;;;;;;;7.90;1.08;;;;;;;5.09;97.91;99180.69;4934779;29;20464;-69
2021/11/22 10:26:49;;;;;;;8.93;1.05;;;;;;;4.27;100.00;99182.06;4946738;28;20431;-70
2021/11/22 10:29:34;;;;;;;3.38;1.02;;;;;;;3.96;100.00;99198.81;4944596;28;20208;-72
2021/11/22 10:32:33;;;;;;;6.22;0.90;;;;;;;3.44;100.00;99192.81;4945805;29;20082;-66
2021/11/22 10:35:20;;;;;;;8.48;0.90;;;;;;;3.03;100.00;99204.16;4943443;28;20485;-65
2021/11/22 10:38:15;;;;;;;4.88;0.82;;;;;;;2.94;100.00;99189.34;4918171;28;20129;-69
2021/11/22 10:41:12;;;;;;;2.15;0.82;;;;;;;2.82;100.00;99185.81;4926349;28;20109;-69
2021/11/22 10:44:03;;;;;;;1.95;0.68;;;;;;;2.70;100.00;99202.41;4927092;29;20564;-66
2021/11/22 10:46:56;;;;;;;2.25;0.70;;;;;;;2.75;100.00;99184.94;4948917;28;20053;-67
2021/11/22 10:49:44;;;;;;;3.75;1.08;;;;;;;2.93;98.66;99203.28;4946193;29;20062;-65
2021/11/22 10:52:35;;;;;;;8.90;1.05;;;;;;;4.19;95.52;99220.59;4959429;28;20062;-64
2021/11/22 10:55:19;;;;;;;1.02;0.52;;;;;;;4.92;83.89;99220.22;4945297;28;20184;-65
2021/11/22 10:58:04;;;;;;;6.47;1.08;;;;;;;6.15;79.42;99230.56;4947897;28;20535;-68
2021/11/22 11:00:48;;;;;;;3.90;0.80;;;;;;;7.18;74.05;99233.56;4949079;28;20049;-65
2021/11/22 11:03:33;;;;;;;2.80;0.90;;;;;;;7.39;67.67;99244.66;4938697;28;20141;-72
2021/11/22 11:06:17;;;;;;;3.85;1.20;;;;;;;8.00;65.75;99257.69;4921507;28;20054;-67
2021/11/22 11:09:04;;;;;;;3.58;0.95;;;;;;;8.18;62.60;99245.03;4905138;28;20058;-63
2021/11/22 11:12:01;;;;;;;2.47;0.80;;;;;;;7.46;63.33;99246.31;4940778;28;20089;-68
2021/11/22 11:14:52;;;;;;;6.07;1.13;;;;;;;7.27;63.77;99255.41;4943656;28;20066;-67
2021/11/22 11:17:37;;;;;;;5.32;0.80;;;;;;;7.12;61.61;99262.69;4943156;28;20054;-67
2021/11/22 11:20:23;;;;;;;5.90;0.82;;;;;;;7.62;58.56;99266.28;4943865;28;20187;-68
2021/11/22 11:23:08;;;;;;;3.28;1.15;;;;;;;6.59;60.47;99276.56;4943246;28;20073;-67
2021/11/22 11:25:53;;;;;;;12.35;1.10;;;;;;;5.86;64.56;99275.59;4941574;28;20113;-78
2021/11/22 11:28:42;;;;;;;1.35;0.63;;;;;;;5.37;68.55;99287.34;4942400;28;20181;-65
2021/11/22 11:31:27;;;;;;;4.78;1.00;;;;;;;4.87;72.03;99284.19;4944337;28;20085;-67
2021/11/22 11:34:13;;;;;;;4.00;1.00;;;;;;;4.17;76.40;99272.19;4945147;29;20187;-64
2021/11/22 11:37:10;;;;;;;9.90;1.23;;;;;;;3.96;78.92;99298.50;4943353;28;20853;-62
2021/11/22 11:40:16;;;;;;;4.95;0.98;;;;;;;3.54;81.43;99285.41;4944806;28;20442;-68
2021/11/22 11:43:29;;;;;;;7.05;0.73;;;;;;;3.20;82.54;99294.09;4943800;28;20131;-76
2021/11/22 11:46:35;;;;;;;3.28;0.82;;;;;;;2.81;83.76;99309.72;4947715;28;20113;-73
2021/11/22 11:49:31;;;;;;;4.63;1.05;;;;;;;2.61;84.89;99307.03;4956668;28;20488;-66
2021/11/22 11:52:26;;;;;;;7.18;0.90;;;;;;;2.65;86.43;99311.41;4946128;28;20141;-65
2021/11/22 11:55:13;;;;;;;6.60;1.10;;;;;;;2.57;88.35;99317.50;4947036;28;20253;-71
2021/11/22 11:58:25;;;;;;;4.25;1.00;;;;;;;2.70;89.97;99332.38;4956671;28;20098;-67
2021/11/22 12:01:18;;;;;;;2.90;1.00;;;;;;;2.82;89.59;99329.81;4946587;28;20419;-66
2021/11/22 12:04:11;;;;;;;6.22;1.27;;;;;;;2.44;90.28;99329.63;4959740;28;20105;-65
2021/11/22 12:07:00;;;;;;;4.03;1.00;;;;;;;2.38;91.94;99347.03;4944439;28;20863;-67
2021/11/22 12:09:45;;;;;;;3.72;1.00;;;;;;;2.38;92.20;99349.66;4942380;28;20090;-72
2021/11/22 12:12:35;;;;;;;3.22;0.90;;;;;;;2.27;92.28;99356.56;4941364;28;20046;-63
2021/11/22 12:15:28;;;;;;;4.72;0.85;;;;;;;2.03;92.02;99348.56;4934758;28;20054;-66
2021/11/22 12:18:27;;;;;;;7.45;0.95;;;;;;;1.97;92.99;99359.00;4944363;28;20239;-64
2021/11/22 12:21:22;;;;;;;3.08;0.90;;;;;;;1.95;94.40;99368.53;4951828;28;20480;-65
2021/11/22 12:24:15;;;;;;;15.68;1.20;;;;;;;2.02;95.56;99371.19;4942328;28;20090;-65
2021/11/22 12:27:26;;;;;;;1.38;0.65;;;;;;;1.94;95.63;99369.41;4954427;28;20131;-60
2021/11/22 12:30:29;;;;;;;3.78;0.93;;;;;;;1.80;97.69;99376.25;4932750;28;20046;-61
2021/11/22 12:33:25;;;;;;;5.38;0.82;;;;;;;2.00;99.20;99392.97;4938299;28;20055;-60
2021/11/22 12:36:13;;;;;;;2.70;0.85;;;;;;;1.92;99.35;99378.97;4955627;28;20090;-63
2021/11/22 12:39:05;;;;;;;4.45;1.00;;;;;;;1.87;98.38;99397.25;4933605;29;20134;-58
2021/11/22 12:41:53;;;;;;;8.65;1.25;;;;;;;1.77;96.32;99402.34;4942264;28;20062;-64
2021/11/22 12:44:40;;;;;;;2.55;1.02;;;;;;;1.70;96.11;99404.03;4935860;28;20630;-64
2021/11/22 12:47:28;;;;;;;3.85;0.80;;;;;;;1.53;96.52;99416.09;4948616;28;20479;-67
2021/11/22 12:50:23;;;;;;;1.17;0.70;;;;;;;1.60;97.17;99417.00;4933494;29;20120;-62
2021/11/22 12:53:16;;;;;;;1.45;0.70;;;;;;;1.53;97.67;99425.66;4934904;28;20182;-64
2021/11/22 12:56:01;;;;;;;2.85;0.70;;;;;;;1.55;98.90;99424.81;4934361;28;20119;-64
2021/11/22 12:59:07;;;;;;;2.65;1.02;;;;;;;1.70;99.42;99424.09;4953917;28;20054;-62
2021/11/22 13:01:57;;;;;;;3.17;0.95;;;;;;;1.55;99.96;99434.38;4943454;28;20231;-58
2021/11/22 13:04:48;;;;;;;6.22;1.20;;;;;;;1.61;100.00;99445.78;4939070;29;20070;-62
2021/11/22 13:07:33;;;;;;;6.75;1.65;;;;;;;1.83;100.00;99441.63;4946307;28;20571;-67
2021/11/22 13:10:39;;;;;;;5.25;1.15;;;;;;;1.90;100.00;99443.44;4928700;29;20456;-59